Portada
METAR-TAF:

METAR-TAF

Aeroports :

Chiclayo, Perú

latitud: 06-47S, longitud: 079-50W, altitud: 29 m

Observació

L'informe es va fer fa 4 hores i 55 minuts, a les 22:00 UTC
Vent 20 kt del Sud
Temperatura 23°C
Humitat 57%
Pressió 1011 hPa
Visibilitat 10 km o més
sense núvols per sota de 1500 mi sense presència de cumulonimbus.

METAR: SPHI 082200Z 18020KT CAVOK 23/14 Q1011 RMK BIRD HAZARD RWY 19/01 TX25.5 PP000

Hora: 21:55 (02:55 UTC)

Pronòstic

L'informe es va fer fa 9 hores i 55 minuts, a les 17:00 UTC
Pronòstic vàlid del 08 a les 18 UTC al 09 a les 18 UTC
Vent 16 kt del Sud/Sud-Oest
Visibilitat 10 km o més
sense núvols per sota de 1500 mi sense presència de cumulonimbus.
Evolucionant progressivament
l' 09 a les 03 UTC al 09 a les 06 UTC
Vent 6 kt del Sud

TAF: SPHI 081700Z 0818/0918 20016KT CAVOK TX25/0819Z TN18/0911Z BECMG 0903/0906 18006KT

Observacions i pronòstics meteorològics de més de 4000 aeroports (METAR i TAF).

Les estacions disponibles són els punts grocs i vermells al mapa.

Posi el ratolí al punt desitjat per veure el nom de l'estació.

Feu clic per veure les observacions i els pronòstics meteorològics.

Per canviar el mapa: feu clic els botons verds amb una creu de color negre per apropar; al botó verd amb un guió per allunyar la imatge; o en les fletxes verdes per a mapes adjacents.


METAR-TAF: